createdAt,value
2023-02-11T00:00:06.104Z,7.20
2023-02-11T00:04:13.033Z,7.30
2023-02-11T00:08:19.689Z,7.30
2023-02-11T00:12:26.707Z,7.30
2023-02-11T00:16:33.713Z,7.30
2023-02-11T00:20:40.935Z,7.30
2023-02-11T00:24:47.725Z,7.30
2023-02-11T00:28:54.786Z,7.20
2023-02-11T00:33:02.353Z,7.30
2023-02-11T00:37:09.143Z,7.30
2023-02-11T00:41:17.282Z,7.40
2023-02-11T00:45:23.960Z,7.40
2023-02-11T00:49:30.680Z,7.40
2023-02-11T00:53:37.588Z,7.40
2023-02-11T00:57:44.286Z,7.40
2023-02-11T01:01:51.024Z,7.50
2023-02-11T01:05:57.745Z,7.50
2023-02-11T01:10:05.085Z,7.40
2023-02-11T01:14:11.810Z,7.40
2023-02-11T01:18:18.740Z,7.50
2023-02-11T01:22:25.519Z,7.40
2023-02-11T01:26:32.305Z,7.50
2023-02-11T01:30:39.751Z,7.50
2023-02-11T01:34:46.492Z,7.50
2023-02-11T01:38:53.188Z,7.40
2023-02-11T01:42:59.865Z,7.40
2023-02-11T01:47:06.637Z,7.50
2023-02-11T01:51:20.427Z,7.50
2023-02-11T01:55:45.702Z,7.30
2023-02-11T02:00:24.220Z,7.40
2023-02-11T02:04:35.633Z,7.50
2023-02-11T02:08:44.266Z,7.50
2023-02-11T02:12:50.990Z,7.40
2023-02-11T02:16:57.748Z,7.40
2023-02-11T02:21:42.139Z,7.30
2023-02-11T02:26:18.804Z,7.40
2023-02-11T02:31:05.403Z,7.40
2023-02-11T02:35:38.164Z,7.30
2023-02-11T02:39:48.716Z,7.30
2023-02-11T02:43:56.031Z,7.30
2023-02-11T02:48:03.003Z,7.20
2023-02-11T02:52:38.424Z,7.20
2023-02-11T02:56:57.740Z,7.20
2023-02-11T03:01:15.299Z,7.20
2023-02-11T03:05:40.371Z,7.10
2023-02-11T03:10:07.393Z,7.20
2023-02-11T03:14:17.173Z,7.20
2023-02-11T03:18:27.359Z,7.20
2023-02-11T03:22:39.879Z,7.20
2023-02-11T03:26:48.833Z,7.30
2023-02-11T03:31:10.556Z,7.20
2023-02-11T03:35:26.448Z,7.20
2023-02-11T03:40:05.401Z,7.30
2023-02-11T03:44:14.531Z,7.20
2023-02-11T03:48:38.056Z,7.20
2023-02-11T03:52:47.127Z,7.20
2023-02-11T03:56:56.440Z,7.20
2023-02-11T04:01:05.138Z,7.30
2023-02-11T04:05:15.320Z,7.30
2023-02-11T04:09:22.602Z,7.30
2023-02-11T04:13:29.443Z,7.30
2023-02-11T04:17:36.152Z,7.30
2023-02-11T04:21:42.827Z,7.30
2023-02-11T04:25:50.282Z,7.30
2023-02-11T04:29:57.149Z,7.30
2023-02-11T04:34:03.886Z,7.40
2023-02-11T04:38:10.648Z,7.40
2023-02-11T04:42:17.339Z,7.40
2023-02-11T04:46:24.077Z,7.50
2023-02-11T04:50:30.953Z,7.50
2023-02-11T04:54:37.735Z,7.50
2023-02-11T04:58:44.459Z,7.40
2023-02-11T05:02:51.179Z,7.40
2023-02-11T05:06:58.778Z,7.40
2023-02-11T05:11:05.761Z,7.40
2023-02-11T05:15:13.387Z,7.40
2023-02-11T05:19:20.585Z,7.50
2023-02-11T05:23:27.438Z,7.60
2023-02-11T05:27:34.212Z,7.50
2023-02-11T05:31:40.903Z,7.50
2023-02-11T05:35:47.665Z,7.50
2023-02-11T05:39:54.383Z,7.50
2023-02-11T05:44:01.671Z,7.50
2023-02-11T05:48:08.408Z,7.40
2023-02-11T05:52:15.097Z,7.70
2023-02-11T05:56:21.753Z,7.50
2023-02-11T06:00:28.852Z,7.50
2023-02-11T06:04:36.598Z,7.50
2023-02-11T06:08:43.386Z,7.50
2023-02-11T06:12:50.093Z,7.40
2023-02-11T06:16:56.757Z,7.50
2023-02-11T06:21:07.862Z,7.40
2023-02-11T06:25:15.094Z,7.40
2023-02-11T06:29:21.788Z,7.50
2023-02-11T06:33:28.564Z,7.50
2023-02-11T06:37:35.561Z,7.50
2023-02-11T06:41:42.249Z,7.50
2023-02-11T06:45:56.250Z,7.50
2023-02-11T06:50:03.696Z,7.50
2023-02-11T06:54:12.942Z,7.50
2023-02-11T06:58:19.637Z,7.60
2023-02-11T07:02:26.427Z,7.60
2023-02-11T07:06:33.096Z,7.60
2023-02-11T07:10:40.120Z,7.60
2023-02-11T07:14:46.827Z,7.60
2023-02-11T07:18:54.201Z,7.60
2023-02-11T07:23:00.908Z,7.60
2023-02-11T07:27:07.674Z,7.60
2023-02-11T07:31:26.279Z,7.60
2023-02-11T07:35:33.020Z,7.70
2023-02-11T07:39:39.712Z,7.70
2023-02-11T07:43:47.021Z,7.70
2023-02-11T07:47:53.906Z,7.80
2023-02-11T07:52:00.656Z,7.80
2023-02-11T07:56:08.404Z,7.80
2023-02-11T08:00:15.654Z,7.90
2023-02-11T08:04:22.361Z,7.90
2023-02-11T08:08:29.020Z,8.00
2023-02-11T08:12:35.840Z,8.00
2023-02-11T08:16:42.747Z,8.10
2023-02-11T08:20:49.780Z,8.20
2023-02-11T08:24:58.351Z,8.20
2023-02-11T08:29:09.447Z,8.30
2023-02-11T08:33:16.250Z,9.30
2023-02-11T08:37:22.911Z,8.50
2023-02-11T08:41:29.679Z,8.50
2023-02-11T08:45:37.763Z,8.60
2023-02-11T08:49:44.465Z,8.70
2023-02-11T08:53:51.830Z,8.70
2023-02-11T08:57:58.515Z,8.70
2023-02-11T09:02:05.508Z,8.80
2023-02-11T09:06:13.795Z,8.90
2023-02-11T09:10:20.565Z,9.00
2023-02-11T09:14:27.668Z,9.00
2023-02-11T09:18:34.434Z,9.00
2023-02-11T09:22:41.122Z,9.10
2023-02-11T09:26:47.970Z,9.10
2023-02-11T09:30:55.043Z,9.10
2023-02-11T09:35:02.048Z,9.20
2023-02-11T09:39:17.073Z,9.30
2023-02-11T09:43:43.011Z,9.30
2023-02-11T09:47:58.554Z,9.20
2023-02-11T09:52:23.386Z,9.30
2023-02-11T09:56:30.898Z,9.30
2023-02-11T10:00:51.468Z,9.30
2023-02-11T10:05:20.162Z,9.30
2023-02-11T10:09:54.755Z,9.40
2023-02-11T10:14:07.721Z,9.50
2023-02-11T10:18:17.191Z,9.70
2023-02-11T10:22:37.519Z,9.70
2023-02-11T10:26:45.981Z,9.80
2023-02-11T10:31:08.285Z,10.00
2023-02-11T10:35:19.430Z,10.30
2023-02-11T10:39:27.675Z,10.40
2023-02-11T10:43:35.010Z,10.50
2023-02-11T10:47:42.707Z,10.60
2023-02-11T10:51:49.415Z,10.70
2023-02-11T10:55:57.452Z,10.60
2023-02-11T11:00:23.135Z,10.60
2023-02-11T11:04:29.872Z,10.60
2023-02-11T11:08:46.864Z,10.60
2023-02-11T11:12:53.572Z,10.60
2023-02-11T11:17:00.233Z,10.90
2023-02-11T11:21:14.796Z,10.80
2023-02-11T11:25:30.185Z,10.90
2023-02-11T11:29:49.345Z,10.80
2023-02-11T11:33:59.239Z,10.60
2023-02-11T11:38:06.058Z,10.80
2023-02-11T11:42:28.168Z,10.80
2023-02-11T11:46:38.681Z,10.90
2023-02-11T11:50:50.128Z,10.80
2023-02-11T11:55:07.800Z,11.90
2023-02-11T11:59:16.655Z,10.80
2023-02-11T12:03:32.286Z,11.00
2023-02-11T12:08:02.398Z,11.20
2023-02-11T12:12:32.700Z,11.10
2023-02-11T12:17:28.292Z,11.10
2023-02-11T12:21:46.596Z,11.00
2023-02-11T12:26:18.130Z,11.10
2023-02-11T12:30:58.993Z,11.00
2023-02-11T12:35:28.555Z,11.10
2023-02-11T12:40:01.335Z,11.20
2023-02-11T12:44:17.756Z,11.30
2023-02-11T12:48:48.702Z,12.40
2023-02-11T12:53:21.469Z,11.50
2023-02-11T12:57:34.669Z,11.40
2023-02-11T13:01:43.756Z,11.40
2023-02-11T13:05:55.169Z,11.50
2023-02-11T13:10:16.700Z,11.50
2023-02-11T13:14:29.486Z,11.70
2023-02-11T13:19:17.837Z,11.60
2023-02-11T13:23:46.520Z,11.60
2023-02-11T13:28:32.313Z,11.60
2023-02-11T13:32:54.400Z,11.50
2023-02-11T13:37:01.192Z,11.40
2023-02-11T13:41:29.354Z,11.40
2023-02-11T13:45:45.062Z,11.50
2023-02-11T13:49:53.449Z,11.50
2023-02-11T13:54:01.332Z,11.40
2023-02-11T13:58:07.975Z,11.30
2023-02-11T14:02:36.267Z,11.30
2023-02-11T14:07:40.696Z,11.40
2023-02-11T14:11:48.947Z,11.40
2023-02-11T14:16:06.914Z,11.30
2023-02-11T14:20:37.987Z,11.40
2023-02-11T14:24:50.906Z,11.30
2023-02-11T14:29:14.029Z,11.40
2023-02-11T14:33:48.137Z,11.50
2023-02-11T14:38:10.951Z,11.80
2023-02-11T14:42:20.964Z,12.30
2023-02-11T14:46:32.985Z,12.40
2023-02-11T14:50:43.007Z,12.30
2023-02-11T14:54:51.433Z,12.20
2023-02-11T14:58:58.714Z,11.70
2023-02-11T15:03:05.543Z,11.50
2023-02-11T15:07:14.004Z,11.20
2023-02-11T15:11:23.855Z,12.40
2023-02-11T15:15:32.416Z,10.80
2023-02-11T15:19:44.215Z,10.60
2023-02-11T15:24:03.403Z,10.50
2023-02-11T15:28:24.227Z,10.30
2023-02-11T15:32:31.036Z,10.30
2023-02-11T15:36:38.600Z,10.30
2023-02-11T15:40:58.436Z,10.30
2023-02-11T15:45:08.423Z,10.30
2023-02-11T15:49:19.220Z,10.40
2023-02-11T15:53:36.483Z,10.40
2023-02-11T15:57:49.285Z,10.30
2023-02-11T16:01:58.197Z,11.00
2023-02-11T16:06:41.884Z,10.20
2023-02-11T16:11:31.026Z,10.20
2023-02-11T16:16:11.840Z,10.20
2023-02-11T16:20:19.934Z,10.20
2023-02-11T16:24:27.990Z,10.30
2023-02-11T16:28:37.025Z,10.30
2023-02-11T16:32:43.849Z,10.20
2023-02-11T16:36:52.235Z,10.10
2023-02-11T16:40:59.009Z,10.00
2023-02-11T16:45:06.707Z,10.00
2023-02-11T16:49:23.891Z,9.80
2023-02-11T16:53:30.601Z,9.80
2023-02-11T16:57:37.272Z,9.80
2023-02-11T17:01:44.986Z,9.80
2023-02-11T17:05:55.578Z,9.80
2023-02-11T17:10:02.732Z,9.80
2023-02-11T17:14:09.414Z,9.90
2023-02-11T17:18:16.103Z,9.90
2023-02-11T17:22:22.807Z,9.80
2023-02-11T17:26:29.586Z,9.80
2023-02-11T17:30:36.383Z,9.80
2023-02-11T17:34:43.176Z,9.80
2023-02-11T17:38:51.221Z,9.70
2023-02-11T17:42:57.903Z,9.70
2023-02-11T17:47:04.716Z,9.70
2023-02-11T17:51:30.094Z,9.60
2023-02-11T17:55:38.492Z,9.60
2023-02-11T17:59:45.336Z,9.60
2023-02-11T18:03:52.003Z,9.60
2023-02-11T18:07:58.676Z,9.60
2023-02-11T18:12:06.750Z,9.60
2023-02-11T18:16:15.751Z,9.60
2023-02-11T18:20:22.661Z,9.60
2023-02-11T18:24:29.317Z,9.60
2023-02-11T18:28:36.333Z,9.60
2023-02-11T18:32:43.244Z,9.50
2023-02-11T18:36:50.146Z,9.40
2023-02-11T18:40:58.095Z,9.40
2023-02-11T18:45:09.345Z,9.40
2023-02-11T18:49:16.077Z,9.40
2023-02-11T18:53:24.752Z,9.50
2023-02-11T18:57:32.018Z,9.40
2023-02-11T19:01:43.170Z,9.40
2023-02-11T19:05:50.596Z,9.30
2023-02-11T19:09:57.503Z,9.30
2023-02-11T19:14:10.058Z,10.30
2023-02-11T19:18:16.793Z,9.10
2023-02-11T19:22:23.530Z,9.10
2023-02-11T19:26:30.300Z,9.10
2023-02-11T19:30:37.093Z,9.10
2023-02-11T19:34:43.797Z,9.20
2023-02-11T19:38:50.485Z,9.20
2023-02-11T19:42:57.162Z,9.20
2023-02-11T19:47:04.056Z,9.30
2023-02-11T19:51:13.219Z,9.30
2023-02-11T19:55:20.098Z,9.20
2023-02-11T19:59:26.842Z,9.30
2023-02-11T20:03:35.094Z,9.30
2023-02-11T20:07:41.768Z,9.30
2023-02-11T20:11:49.324Z,9.60
2023-02-11T20:15:56.112Z,9.20
2023-02-11T20:20:03.436Z,9.10
2023-02-11T20:24:10.335Z,9.20
2023-02-11T20:28:17.114Z,9.10
2023-02-11T20:32:23.964Z,9.20
2023-02-11T20:36:35.555Z,9.20
2023-02-11T20:40:44.158Z,9.10
2023-02-11T20:44:50.923Z,9.10
2023-02-11T20:48:57.804Z,8.40
2023-02-11T20:53:05.666Z,9.20
2023-02-11T20:57:12.481Z,9.20
2023-02-11T21:01:23.418Z,9.20
2023-02-11T21:05:31.020Z,9.20
2023-02-11T21:09:38.187Z,9.10
2023-02-11T21:13:45.084Z,9.10
2023-02-11T21:17:51.891Z,9.10
2023-02-11T21:22:00.627Z,9.10
2023-02-11T21:26:08.150Z,9.10
2023-02-11T21:30:14.890Z,9.10
2023-02-11T21:34:21.705Z,9.10
2023-02-11T21:38:28.904Z,9.00
2023-02-11T21:42:35.675Z,8.90
2023-02-11T21:46:42.476Z,8.90
2023-02-11T21:50:49.735Z,8.90
2023-02-11T21:54:56.435Z,9.00
2023-02-11T21:59:03.396Z,9.00
2023-02-11T22:03:10.900Z,9.00
2023-02-11T22:07:18.321Z,9.00
2023-02-11T22:11:25.041Z,8.90
2023-02-11T22:15:31.703Z,8.90
2023-02-11T22:19:38.440Z,8.90
2023-02-11T22:23:45.816Z,8.90
2023-02-11T22:27:52.503Z,8.80
2023-02-11T22:31:59.257Z,8.80
2023-02-11T22:36:11.192Z,10.10
2023-02-11T22:40:17.917Z,8.70
2023-02-11T22:44:24.976Z,8.80
2023-02-11T22:48:32.300Z,8.90
2023-02-11T22:52:38.974Z,8.80
2023-02-11T22:56:49.329Z,8.80
2023-02-11T23:00:56.024Z,8.70
2023-02-11T23:05:02.729Z,8.70
2023-02-11T23:09:12.420Z,8.80
2023-02-11T23:13:19.203Z,8.80
2023-02-11T23:17:26.164Z,8.80
2023-02-11T23:21:35.325Z,8.80
2023-02-11T23:25:45.241Z,8.80
2023-02-11T23:29:55.083Z,8.80
2023-02-11T23:34:02.097Z,8.70
2023-02-11T23:38:08.794Z,8.60
2023-02-11T23:42:15.674Z,8.60
2023-02-11T23:46:23.375Z,8.50
2023-02-11T23:50:30.268Z,8.50
2023-02-11T23:54:37.000Z,8.50
2023-02-11T23:58:44.851Z,8.40
